sensor_id;sensor_type;location;lat;lon;timestamp;P1;durP1;ratioP1;P2;durP2;ratioP2
67130;SDS011;54051;53.464;49.532;2022-12-05T00:01:43;12.40;;;4.35;;
67130;SDS011;54051;53.464;49.532;2022-12-05T00:04:11;11.23;;;4.15;;
67130;SDS011;54051;53.464;49.532;2022-12-05T00:06:38;13.18;;;4.40;;
67130;SDS011;54051;53.464;49.532;2022-12-05T00:11:33;13.00;;;4.70;;
67130;SDS011;54051;53.464;49.532;2022-12-05T00:14:01;12.73;;;4.43;;
67130;SDS011;54051;53.464;49.532;2022-12-05T00:18:57;13.77;;;4.45;;
67130;SDS011;54051;53.464;49.532;2022-12-05T00:21:25;12.07;;;4.00;;
67130;SDS011;54051;53.464;49.532;2022-12-05T00:23:54;13.38;;;4.70;;
67130;SDS011;54051;53.464;49.532;2022-12-05T00:26:21;13.75;;;4.80;;
67130;SDS011;54051;53.464;49.532;2022-12-05T00:28:47;11.00;;;4.00;;
67130;SDS011;54051;53.464;49.532;2022-12-05T00:31:15;12.75;;;4.57;;
67130;SDS011;54051;53.464;49.532;2022-12-05T00:33:43;12.48;;;4.65;;
67130;SDS011;54051;53.464;49.532;2022-12-05T00:36:14;12.03;;;4.20;;
67130;SDS011;54051;53.464;49.532;2022-12-05T00:38:42;14.32;;;4.88;;
67130;SDS011;54051;53.464;49.532;2022-12-05T00:41:09;10.85;;;4.28;;
67130;SDS011;54051;53.464;49.532;2022-12-05T00:43:40;10.05;;;3.90;;
67130;SDS011;54051;53.464;49.532;2022-12-05T00:46:08;9.65;;;3.80;;
67130;SDS011;54051;53.464;49.532;2022-12-05T00:48:36;9.00;;;3.97;;
67130;SDS011;54051;53.464;49.532;2022-12-05T00:51:04;13.68;;;4.25;;
67130;SDS011;54051;53.464;49.532;2022-12-05T00:53:35;12.63;;;4.40;;
67130;SDS011;54051;53.464;49.532;2022-12-05T00:56:06;15.50;;;4.78;;
67130;SDS011;54051;53.464;49.532;2022-12-05T00:58:33;13.25;;;4.15;;
67130;SDS011;54051;53.464;49.532;2022-12-05T01:01:11;12.75;;;4.50;;
67130;SDS011;54051;53.464;49.532;2022-12-05T01:03:42;12.15;;;4.55;;
67130;SDS011;54051;53.464;49.532;2022-12-05T01:06:09;21.38;;;4.68;;
67130;SDS011;54051;53.464;49.532;2022-12-05T01:11:03;11.45;;;4.03;;
67130;SDS011;54051;53.464;49.532;2022-12-05T01:13:30;12.95;;;4.40;;
67130;SDS011;54051;53.464;49.532;2022-12-05T01:15:56;10.20;;;3.83;;
67130;SDS011;54051;53.464;49.532;2022-12-05T01:18:23;12.00;;;4.32;;
67130;SDS011;54051;53.464;49.532;2022-12-05T01:20:50;10.57;;;4.22;;
67130;SDS011;54051;53.464;49.532;2022-12-05T01:23:17;11.95;;;4.10;;
67130;SDS011;54051;53.464;49.532;2022-12-05T01:25:45;14.13;;;4.90;;
67130;SDS011;54051;53.464;49.532;2022-12-05T01:28:12;13.95;;;4.35;;
67130;SDS011;54051;53.464;49.532;2022-12-05T01:30:40;12.98;;;4.75;;
67130;SDS011;54051;53.464;49.532;2022-12-05T01:33:08;20.05;;;7.30;;
67130;SDS011;54051;53.464;49.532;2022-12-05T01:35:35;13.07;;;4.90;;
67130;SDS011;54051;53.464;49.532;2022-12-05T01:38:02;13.68;;;5.22;;
67130;SDS011;54051;53.464;49.532;2022-12-05T01:40:29;14.45;;;5.20;;
67130;SDS011;54051;53.464;49.532;2022-12-05T01:42:56;15.73;;;5.50;;
67130;SDS011;54051;53.464;49.532;2022-12-05T01:45:36;12.98;;;5.35;;
67130;SDS011;54051;53.464;49.532;2022-12-05T01:48:05;16.70;;;5.55;;
67130;SDS011;54051;53.464;49.532;2022-12-05T01:50:36;18.58;;;5.82;;
67130;SDS011;54051;53.464;49.532;2022-12-05T01:53:02;16.67;;;5.38;;
67130;SDS011;54051;53.464;49.532;2022-12-05T01:55:29;17.60;;;5.80;;
67130;SDS011;54051;53.464;49.532;2022-12-05T01:57:55;19.17;;;6.28;;
67130;SDS011;54051;53.464;49.532;2022-12-05T02:00:22;14.90;;;6.00;;
67130;SDS011;54051;53.464;49.532;2022-12-05T02:02:51;15.00;;;5.57;;
67130;SDS011;54051;53.464;49.532;2022-12-05T02:05:21;14.75;;;5.57;;
67130;SDS011;54051;53.464;49.532;2022-12-05T02:07:51;12.98;;;5.07;;
67130;SDS011;54051;53.464;49.532;2022-12-05T02:10:17;11.98;;;4.70;;
67130;SDS011;54051;53.464;49.532;2022-12-05T02:12:43;11.63;;;4.70;;
67130;SDS011;54051;53.464;49.532;2022-12-05T02:29:58;10.82;;;4.07;;
67130;SDS011;54051;53.464;49.532;2022-12-05T02:35:15;10.32;;;4.50;;
67130;SDS011;54051;53.464;49.532;2022-12-05T02:38:20;12.10;;;4.00;;
67130;SDS011;54051;53.464;49.532;2022-12-05T02:46:05;10.35;;;4.00;;
67130;SDS011;54051;53.464;49.532;2022-12-05T02:48:35;11.90;;;4.82;;
67130;SDS011;54051;53.464;49.532;2022-12-05T02:51:03;11.45;;;3.97;;
67130;SDS011;54051;53.464;49.532;2022-12-05T02:53:30;11.30;;;4.07;;
67130;SDS011;54051;53.464;49.532;2022-12-05T02:56:00;13.57;;;3.97;;
67130;SDS011;54051;53.464;49.532;2022-12-05T02:58:31;13.85;;;4.28;;
67130;SDS011;54051;53.464;49.532;2022-12-05T03:01:00;9.77;;;3.60;;
67130;SDS011;54051;53.464;49.532;2022-12-05T03:03:27;12.10;;;4.00;;
67130;SDS011;54051;53.464;49.532;2022-12-05T03:06:15;13.07;;;4.07;;
67130;SDS011;54051;53.464;49.532;2022-12-05T03:08:50;11.45;;;4.10;;
67130;SDS011;54051;53.464;49.532;2022-12-05T03:11:48;9.80;;;3.78;;
67130;SDS011;54051;53.464;49.532;2022-12-05T03:14:20;11.30;;;3.50;;
67130;SDS011;54051;53.464;49.532;2022-12-05T03:16:52;10.88;;;3.83;;
67130;SDS011;54051;53.464;49.532;2022-12-05T03:21:56;9.80;;;3.67;;
67130;SDS011;54051;53.464;49.532;2022-12-05T03:24:26;13.00;;;4.45;;
67130;SDS011;54051;53.464;49.532;2022-12-05T03:27:02;11.90;;;4.20;;
67130;SDS011;54051;53.464;49.532;2022-12-05T03:29:39;13.32;;;3.95;;
67130;SDS011;54051;53.464;49.532;2022-12-05T03:35:00;13.52;;;4.10;;
67130;SDS011;54051;53.464;49.532;2022-12-05T03:40:31;12.48;;;4.00;;
67130;SDS011;54051;53.464;49.532;2022-12-05T03:46:11;9.88;;;3.80;;
67130;SDS011;54051;53.464;49.532;2022-12-05T03:48:51;12.30;;;4.07;;
67130;SDS011;54051;53.464;49.532;2022-12-05T03:51:31;10.13;;;3.80;;
67130;SDS011;54051;53.464;49.532;2022-12-05T03:54:03;11.25;;;3.95;;
67130;SDS011;54051;53.464;49.532;2022-12-05T03:56:34;15.07;;;3.70;;
67130;SDS011;54051;53.464;49.532;2022-12-05T04:02:01;11.00;;;3.58;;
67130;SDS011;54051;53.464;49.532;2022-12-05T04:04:38;16.27;;;5.13;;
67130;SDS011;54051;53.464;49.532;2022-12-05T04:07:12;13.55;;;4.18;;
67130;SDS011;54051;53.464;49.532;2022-12-05T04:09:42;15.02;;;4.25;;
67130;SDS011;54051;53.464;49.532;2022-12-05T04:12:13;12.80;;;3.83;;
67130;SDS011;54051;53.464;49.532;2022-12-05T04:14:44;12.90;;;4.00;;
67130;SDS011;54051;53.464;49.532;2022-12-05T04:22:33;10.65;;;3.85;;
67130;SDS011;54051;53.464;49.532;2022-12-05T04:25:01;10.93;;;3.80;;
67130;SDS011;54051;53.464;49.532;2022-12-05T04:39:13;9.18;;;3.70;;
67130;SDS011;54051;53.464;49.532;2022-12-05T04:41:49;9.25;;;3.72;;
67130;SDS011;54051;53.464;49.532;2022-12-05T04:44:21;12.30;;;3.75;;
67130;SDS011;54051;53.464;49.532;2022-12-05T04:46:52;15.57;;;4.18;;
67130;SDS011;54051;53.464;49.532;2022-12-05T04:49:20;13.73;;;4.18;;
67130;SDS011;54051;53.464;49.532;2022-12-05T04:51:49;15.30;;;4.18;;
67130;SDS011;54051;53.464;49.532;2022-12-05T04:54:19;10.77;;;4.00;;
67130;SDS011;54051;53.464;49.532;2022-12-05T04:56:51;12.05;;;3.85;;
67130;SDS011;54051;53.464;49.532;2022-12-05T04:59:23;12.65;;;3.90;;
67130;SDS011;54051;53.464;49.532;2022-12-05T05:01:53;11.05;;;3.90;;
67130;SDS011;54051;53.464;49.532;2022-12-05T05:04:25;10.65;;;3.90;;
67130;SDS011;54051;53.464;49.532;2022-12-05T05:06:56;11.77;;;3.92;;
67130;SDS011;54051;53.464;49.532;2022-12-05T05:09:22;12.85;;;4.40;;
67130;SDS011;54051;53.464;49.532;2022-12-05T05:11:48;10.85;;;3.78;;
67130;SDS011;54051;53.464;49.532;2022-12-05T05:14:13;10.77;;;4.07;;
67130;SDS011;54051;53.464;49.532;2022-12-05T05:16:40;14.07;;;4.35;;
67130;SDS011;54051;53.464;49.532;2022-12-05T05:21:34;12.90;;;4.70;;
67130;SDS011;54051;53.464;49.532;2022-12-05T05:24:02;12.88;;;4.18;;
67130;SDS011;54051;53.464;49.532;2022-12-05T05:26:29;10.60;;;3.50;;
67130;SDS011;54051;53.464;49.532;2022-12-05T05:28:57;12.48;;;4.80;;
67130;SDS011;54051;53.464;49.532;2022-12-05T05:31:23;10.65;;;3.80;;
67130;SDS011;54051;53.464;49.532;2022-12-05T05:33:50;14.25;;;5.20;;
67130;SDS011;54051;53.464;49.532;2022-12-05T05:36:17;12.95;;;4.80;;
67130;SDS011;54051;53.464;49.532;2022-12-05T05:38:45;14.23;;;4.97;;
67130;SDS011;54051;53.464;49.532;2022-12-05T05:41:16;16.13;;;5.30;;
67130;SDS011;54051;53.464;49.532;2022-12-05T05:43:44;12.63;;;4.35;;
67130;SDS011;54051;53.464;49.532;2022-12-05T05:46:11;15.80;;;5.70;;
67130;SDS011;54051;53.464;49.532;2022-12-05T05:48:38;14.93;;;4.50;;
67130;SDS011;54051;53.464;49.532;2022-12-05T05:51:05;11.68;;;4.50;;
67130;SDS011;54051;53.464;49.532;2022-12-05T05:53:33;15.85;;;4.60;;
67130;SDS011;54051;53.464;49.532;2022-12-05T05:56:06;11.35;;;4.63;;
67130;SDS011;54051;53.464;49.532;2022-12-05T05:58:33;12.68;;;4.53;;
67130;SDS011;54051;53.464;49.532;2022-12-05T06:03:33;16.25;;;5.07;;
67130;SDS011;54051;53.464;49.532;2022-12-05T06:06:00;17.48;;;5.40;;
67130;SDS011;54051;53.464;49.532;2022-12-05T06:08:32;12.85;;;4.60;;
67130;SDS011;54051;53.464;49.532;2022-12-05T06:10:59;11.73;;;4.53;;
67130;SDS011;54051;53.464;49.532;2022-12-05T06:13:30;14.40;;;5.38;;
67130;SDS011;54051;53.464;49.532;2022-12-05T06:15:56;20.23;;;5.15;;
67130;SDS011;54051;53.464;49.532;2022-12-05T06:18:22;14.52;;;4.45;;
67130;SDS011;54051;53.464;49.532;2022-12-05T06:20:54;15.90;;;5.25;;
67130;SDS011;54051;53.464;49.532;2022-12-05T06:23:22;17.13;;;5.35;;
67130;SDS011;54051;53.464;49.532;2022-12-05T06:25:49;12.07;;;4.97;;
67130;SDS011;54051;53.464;49.532;2022-12-05T06:28:17;15.15;;;4.80;;
67130;SDS011;54051;53.464;49.532;2022-12-05T06:30:44;13.00;;;5.10;;
67130;SDS011;54051;53.464;49.532;2022-12-05T06:33:11;12.07;;;4.72;;
67130;SDS011;54051;53.464;49.532;2022-12-05T06:35:37;11.25;;;4.97;;
67130;SDS011;54051;53.464;49.532;2022-12-05T06:38:04;14.32;;;5.20;;
67130;SDS011;54051;53.464;49.532;2022-12-05T06:40:31;13.90;;;5.75;;
67130;SDS011;54051;53.464;49.532;2022-12-05T06:42:57;12.05;;;4.82;;
67130;SDS011;54051;53.464;49.532;2022-12-05T06:45:24;11.43;;;4.90;;
67130;SDS011;54051;53.464;49.532;2022-12-05T06:47:50;11.60;;;4.75;;
67130;SDS011;54051;53.464;49.532;2022-12-05T06:50:17;13.27;;;5.20;;
67130;SDS011;54051;53.464;49.532;2022-12-05T06:52:44;13.07;;;4.95;;
67130;SDS011;54051;53.464;49.532;2022-12-05T06:55:10;10.20;;;4.70;;
67130;SDS011;54051;53.464;49.532;2022-12-05T06:57:36;13.05;;;5.07;;
67130;SDS011;54051;53.464;49.532;2022-12-05T07:00:04;11.77;;;4.95;;
67130;SDS011;54051;53.464;49.532;2022-12-05T07:02:53;14.07;;;5.25;;
67130;SDS011;54051;53.464;49.532;2022-12-05T07:05:19;12.60;;;4.90;;
67130;SDS011;54051;53.464;49.532;2022-12-05T07:07:45;11.68;;;4.88;;
67130;SDS011;54051;53.464;49.532;2022-12-05T07:10:11;11.55;;;4.85;;
67130;SDS011;54051;53.464;49.532;2022-12-05T07:12:38;11.52;;;4.55;;
67130;SDS011;54051;53.464;49.532;2022-12-05T07:15:04;11.50;;;5.20;;
67130;SDS011;54051;53.464;49.532;2022-12-05T07:17:33;14.93;;;4.80;;
67130;SDS011;54051;53.464;49.532;2022-12-05T07:20:01;11.20;;;4.85;;
67130;SDS011;54051;53.464;49.532;2022-12-05T07:22:28;11.30;;;4.70;;
67130;SDS011;54051;53.464;49.532;2022-12-05T07:24:54;10.57;;;4.60;;
67130;SDS011;54051;53.464;49.532;2022-12-05T07:27:19;13.23;;;4.68;;
67130;SDS011;54051;53.464;49.532;2022-12-05T07:29:46;11.63;;;4.80;;
67130;SDS011;54051;53.464;49.532;2022-12-05T07:32:11;15.70;;;5.82;;
67130;SDS011;54051;53.464;49.532;2022-12-05T07:34:38;12.45;;;5.47;;
67130;SDS011;54051;53.464;49.532;2022-12-05T07:37:04;10.45;;;4.90;;
67130;SDS011;54051;53.464;49.532;2022-12-05T07:39:30;12.10;;;4.85;;
67130;SDS011;54051;53.464;49.532;2022-12-05T07:41:56;11.18;;;4.28;;
67130;SDS011;54051;53.464;49.532;2022-12-05T07:44:22;10.75;;;4.70;;
67130;SDS011;54051;53.464;49.532;2022-12-05T07:46:48;12.07;;;4.78;;
67130;SDS011;54051;53.464;49.532;2022-12-05T07:49:14;13.75;;;4.75;;
67130;SDS011;54051;53.464;49.532;2022-12-05T07:51:40;12.23;;;4.65;;
67130;SDS011;54051;53.464;49.532;2022-12-05T07:54:06;12.00;;;5.18;;
67130;SDS011;54051;53.464;49.532;2022-12-05T07:56:32;12.85;;;5.18;;
67130;SDS011;54051;53.464;49.532;2022-12-05T07:58:58;11.95;;;5.25;;
67130;SDS011;54051;53.464;49.532;2022-12-05T08:01:25;14.73;;;4.75;;
67130;SDS011;54051;53.464;49.532;2022-12-05T08:03:53;12.43;;;5.00;;
67130;SDS011;54051;53.464;49.532;2022-12-05T08:06:22;13.05;;;4.68;;
67130;SDS011;54051;53.464;49.532;2022-12-05T08:08:50;10.20;;;4.70;;
67130;SDS011;54051;53.464;49.532;2022-12-05T08:11:26;12.30;;;4.60;;
67130;SDS011;54051;53.464;49.532;2022-12-05T08:13:54;14.80;;;4.90;;
67130;SDS011;54051;53.464;49.532;2022-12-05T08:16:22;11.03;;;4.53;;
67130;SDS011;54051;53.464;49.532;2022-12-05T08:18:55;12.75;;;4.78;;
67130;SDS011;54051;53.464;49.532;2022-12-05T08:21:23;12.18;;;4.60;;
67130;SDS011;54051;53.464;49.532;2022-12-05T08:23:52;20.60;;;5.45;;
67130;SDS011;54051;53.464;49.532;2022-12-05T08:26:22;11.93;;;5.03;;
67130;SDS011;54051;53.464;49.532;2022-12-05T08:28:54;12.50;;;5.10;;
67130;SDS011;54051;53.464;49.532;2022-12-05T08:31:26;11.45;;;4.60;;
67130;SDS011;54051;53.464;49.532;2022-12-05T08:33:55;13.00;;;4.80;;
67130;SDS011;54051;53.464;49.532;2022-12-05T08:36:22;12.13;;;4.88;;
67130;SDS011;54051;53.464;49.532;2022-12-05T08:38:49;11.68;;;4.80;;
67130;SDS011;54051;53.464;49.532;2022-12-05T08:41:20;13.32;;;4.55;;
67130;SDS011;54051;53.464;49.532;2022-12-05T08:43:46;16.02;;;5.00;;
67130;SDS011;54051;53.464;49.532;2022-12-05T08:46:12;13.65;;;5.25;;
67130;SDS011;54051;53.464;49.532;2022-12-05T08:48:38;12.63;;;5.00;;
67130;SDS011;54051;53.464;49.532;2022-12-05T08:51:05;16.17;;;5.65;;
67130;SDS011;54051;53.464;49.532;2022-12-05T08:53:32;12.43;;;5.38;;
67130;SDS011;54051;53.464;49.532;2022-12-05T08:56:03;13.40;;;5.25;;
67130;SDS011;54051;53.464;49.532;2022-12-05T08:58:30;11.93;;;5.00;;
67130;SDS011;54051;53.464;49.532;2022-12-05T09:01:06;15.00;;;6.05;;
67130;SDS011;54051;53.464;49.532;2022-12-05T09:03:33;12.18;;;5.28;;
67130;SDS011;54051;53.464;49.532;2022-12-05T09:06:06;12.70;;;5.20;;
67130;SDS011;54051;53.464;49.532;2022-12-05T09:08:34;13.40;;;4.75;;
67130;SDS011;54051;53.464;49.532;2022-12-05T09:11:04;13.27;;;4.83;;
67130;SDS011;54051;53.464;49.532;2022-12-05T09:13:34;10.95;;;4.75;;
67130;SDS011;54051;53.464;49.532;2022-12-05T09:16:07;16.42;;;5.38;;
67130;SDS011;54051;53.464;49.532;2022-12-05T09:18:35;12.45;;;4.78;;
67130;SDS011;54051;53.464;49.532;2022-12-05T09:21:05;12.68;;;5.20;;
67130;SDS011;54051;53.464;49.532;2022-12-05T09:23:32;10.90;;;4.80;;
67130;SDS011;54051;53.464;49.532;2022-12-05T09:25:58;13.60;;;4.95;;
67130;SDS011;54051;53.464;49.532;2022-12-05T09:28:28;12.55;;;4.40;;
67130;SDS011;54051;53.464;49.532;2022-12-05T09:30:57;14.32;;;5.63;;
67130;SDS011;54051;53.464;49.532;2022-12-05T09:33:29;12.80;;;5.10;;
67130;SDS011;54051;53.464;49.532;2022-12-05T09:35:56;14.68;;;5.00;;
67130;SDS011;54051;53.464;49.532;2022-12-05T09:38:22;12.02;;;4.65;;
67130;SDS011;54051;53.464;49.532;2022-12-05T09:40:51;13.88;;;4.90;;
67130;SDS011;54051;53.464;49.532;2022-12-05T09:49:13;11.32;;;4.47;;
67130;SDS011;54051;53.464;49.532;2022-12-05T09:51:39;12.75;;;4.82;;
67130;SDS011;54051;53.464;49.532;2022-12-05T09:54:10;13.55;;;5.07;;
67130;SDS011;54051;53.464;49.532;2022-12-05T09:56:37;12.57;;;5.07;;
67130;SDS011;54051;53.464;49.532;2022-12-05T09:59:08;11.00;;;4.50;;
67130;SDS011;54051;53.464;49.532;2022-12-05T10:09:52;14.18;;;4.88;;
67130;SDS011;54051;53.464;49.532;2022-12-05T10:18:02;11.60;;;4.75;;
67130;SDS011;54051;53.464;49.532;2022-12-05T10:20:32;12.63;;;4.70;;
67130;SDS011;54051;53.464;49.532;2022-12-05T10:23:20;14.43;;;4.50;;
67130;SDS011;54051;53.464;49.532;2022-12-05T10:25:55;14.82;;;5.18;;
67130;SDS011;54051;53.464;49.532;2022-12-05T10:31:00;12.18;;;4.88;;
67130;SDS011;54051;53.464;49.532;2022-12-05T10:33:32;12.48;;;4.50;;
67130;SDS011;54051;53.464;49.532;2022-12-05T10:36:08;12.07;;;5.28;;
67130;SDS011;54051;53.464;49.532;2022-12-05T10:38:35;11.93;;;4.82;;
67130;SDS011;54051;53.464;49.532;2022-12-05T10:41:05;12.80;;;5.10;;
67130;SDS011;54051;53.464;49.532;2022-12-05T10:50:57;13.73;;;4.80;;
67130;SDS011;54051;53.464;49.532;2022-12-05T10:53:25;15.20;;;6.43;;
67130;SDS011;54051;53.464;49.532;2022-12-05T10:56:05;13.13;;;4.78;;
67130;SDS011;54051;53.464;49.532;2022-12-05T10:59:03;11.73;;;4.35;;
67130;SDS011;54051;53.464;49.532;2022-12-05T11:01:30;11.57;;;4.38;;
67130;SDS011;54051;53.464;49.532;2022-12-05T11:03:57;15.07;;;5.18;;
67130;SDS011;54051;53.464;49.532;2022-12-05T11:06:26;10.73;;;4.60;;
67130;SDS011;54051;53.464;49.532;2022-12-05T11:11:21;14.45;;;5.30;;
67130;SDS011;54051;53.464;49.532;2022-12-05T11:16:25;12.75;;;4.53;;
67130;SDS011;54051;53.464;49.532;2022-12-05T11:21:50;12.77;;;4.60;;
67130;SDS011;54051;53.464;49.532;2022-12-05T11:27:00;12.68;;;5.03;;
67130;SDS011;54051;53.464;49.532;2022-12-05T11:32:18;12.80;;;5.13;;
67130;SDS011;54051;53.464;49.532;2022-12-05T11:46:34;13.55;;;5.07;;
67130;SDS011;54051;53.464;49.532;2022-12-05T11:49:17;13.63;;;5.07;;
67130;SDS011;54051;53.464;49.532;2022-12-05T11:52:25;12.70;;;4.82;;
67130;SDS011;54051;53.464;49.532;2022-12-05T11:55:04;12.70;;;4.88;;
67130;SDS011;54051;53.464;49.532;2022-12-05T11:57:50;12.68;;;5.28;;
67130;SDS011;54051;53.464;49.532;2022-12-05T12:05:44;13.52;;;5.10;;
67130;SDS011;54051;53.464;49.532;2022-12-05T12:08:28;12.85;;;5.07;;
67130;SDS011;54051;53.464;49.532;2022-12-05T12:13:49;14.35;;;5.30;;
67130;SDS011;54051;53.464;49.532;2022-12-05T12:19:10;12.93;;;5.15;;
67130;SDS011;54051;53.464;49.532;2022-12-05T12:33:35;13.32;;;4.72;;
67130;SDS011;54051;53.464;49.532;2022-12-05T12:36:24;14.75;;;5.53;;
67130;SDS011;54051;53.464;49.532;2022-12-05T12:39:06;14.15;;;4.97;;
67130;SDS011;54051;53.464;49.532;2022-12-05T12:41:39;13.20;;;5.10;;
67130;SDS011;54051;53.464;49.532;2022-12-05T12:49:54;14.25;;;5.15;;
67130;SDS011;54051;53.464;49.532;2022-12-05T13:04:03;14.20;;;5.50;;
67130;SDS011;54051;53.464;49.532;2022-12-05T13:06:44;14.38;;;5.90;;
67130;SDS011;54051;53.464;49.532;2022-12-05T13:09:35;13.90;;;5.93;;
67130;SDS011;54051;53.464;49.532;2022-12-05T13:12:07;16.67;;;5.82;;
67130;SDS011;54051;53.464;49.532;2022-12-05T13:14:38;12.98;;;5.38;;
67130;SDS011;54051;53.464;49.532;2022-12-05T13:17:11;18.23;;;7.93;;
67130;SDS011;54051;53.464;49.532;2022-12-05T13:19:50;17.90;;;6.55;;
67130;SDS011;54051;53.464;49.532;2022-12-05T13:22:18;15.18;;;5.57;;
67130;SDS011;54051;53.464;49.532;2022-12-05T13:24:48;13.75;;;5.43;;
67130;SDS011;54051;53.464;49.532;2022-12-05T13:27:16;14.00;;;5.78;;
67130;SDS011;54051;53.464;49.532;2022-12-05T13:29:49;14.15;;;5.47;;
67130;SDS011;54051;53.464;49.532;2022-12-05T13:35:07;14.02;;;5.68;;
67130;SDS011;54051;53.464;49.532;2022-12-05T13:37:34;13.43;;;5.37;;
67130;SDS011;54051;53.464;49.532;2022-12-05T13:43:26;12.98;;;5.68;;
67130;SDS011;54051;53.464;49.532;2022-12-05T13:46:06;16.77;;;6.18;;
67130;SDS011;54051;53.464;49.532;2022-12-05T13:48:36;15.18;;;5.45;;
67130;SDS011;54051;53.464;49.532;2022-12-05T13:51:12;13.90;;;5.95;;
67130;SDS011;54051;53.464;49.532;2022-12-05T13:56:49;13.52;;;6.22;;
67130;SDS011;54051;53.464;49.532;2022-12-05T14:02:44;13.68;;;5.80;;
67130;SDS011;54051;53.464;49.532;2022-12-05T14:07:40;16.20;;;5.75;;
67130;SDS011;54051;53.464;49.532;2022-12-05T14:10:09;18.80;;;6.43;;
67130;SDS011;54051;53.464;49.532;2022-12-05T14:28:29;18.27;;;6.63;;
67130;SDS011;54051;53.464;49.532;2022-12-05T14:36:24;15.93;;;6.15;;
67130;SDS011;54051;53.464;49.532;2022-12-05T14:38:55;17.48;;;6.60;;
67130;SDS011;54051;53.464;49.532;2022-12-05T14:43:54;15.30;;;6.20;;
67130;SDS011;54051;53.464;49.532;2022-12-05T14:46:23;15.60;;;6.88;;
67130;SDS011;54051;53.464;49.532;2022-12-05T14:48:51;16.23;;;6.22;;
67130;SDS011;54051;53.464;49.532;2022-12-05T14:53:55;17.40;;;6.88;;
67130;SDS011;54051;53.464;49.532;2022-12-05T14:56:27;19.63;;;6.95;;
67130;SDS011;54051;53.464;49.532;2022-12-05T14:59:03;15.02;;;6.13;;
67130;SDS011;54051;53.464;49.532;2022-12-05T15:01:38;15.80;;;6.32;;
67130;SDS011;54051;53.464;49.532;2022-12-05T15:06:51;18.92;;;7.68;;
67130;SDS011;54051;53.464;49.532;2022-12-05T15:12:00;31.25;;;9.60;;
67130;SDS011;54051;53.464;49.532;2022-12-05T15:14:29;26.25;;;9.57;;
67130;SDS011;54051;53.464;49.532;2022-12-05T15:16:59;27.73;;;9.95;;
67130;SDS011;54051;53.464;49.532;2022-12-05T15:19:28;26.67;;;9.88;;
67130;SDS011;54051;53.464;49.532;2022-12-05T15:22:05;25.88;;;10.35;;
67130;SDS011;54051;53.464;49.532;2022-12-05T15:24:36;24.17;;;10.23;;
67130;SDS011;54051;53.464;49.532;2022-12-05T15:27:03;26.70;;;9.57;;
67130;SDS011;54051;53.464;49.532;2022-12-05T15:29:31;23.73;;;9.43;;
67130;SDS011;54051;53.464;49.532;2022-12-05T15:32:02;25.55;;;9.18;;
67130;SDS011;54051;53.464;49.532;2022-12-05T15:37:22;21.90;;;8.18;;
67130;SDS011;54051;53.464;49.532;2022-12-05T15:42:41;22.35;;;9.40;;
67130;SDS011;54051;53.464;49.532;2022-12-05T15:47:43;22.70;;;9.32;;
67130;SDS011;54051;53.464;49.532;2022-12-05T16:00:44;18.27;;;7.00;;
67130;SDS011;54051;53.464;49.532;2022-12-05T16:03:21;19.60;;;7.32;;
67130;SDS011;54051;53.464;49.532;2022-12-05T16:06:00;18.05;;;7.03;;
67130;SDS011;54051;53.464;49.532;2022-12-05T16:08:30;21.63;;;7.72;;
67130;SDS011;54051;53.464;49.532;2022-12-05T16:11:11;20.38;;;7.20;;
67130;SDS011;54051;53.464;49.532;2022-12-05T16:13:49;20.27;;;7.07;;
67130;SDS011;54051;53.464;49.532;2022-12-05T16:16:20;18.98;;;7.45;;
67130;SDS011;54051;53.464;49.532;2022-12-05T16:18:51;21.27;;;7.68;;
67130;SDS011;54051;53.464;49.532;2022-12-05T16:21:38;20.60;;;7.75;;
67130;SDS011;54051;53.464;49.532;2022-12-05T16:24:17;16.98;;;7.47;;
67130;SDS011;54051;53.464;49.532;2022-12-05T16:29:38;19.40;;;8.10;;
67130;SDS011;54051;53.464;49.532;2022-12-05T16:32:11;19.23;;;7.50;;
67130;SDS011;54051;53.464;49.532;2022-12-05T16:34:44;19.50;;;7.90;;
67130;SDS011;54051;53.464;49.532;2022-12-05T16:37:20;20.63;;;8.05;;
67130;SDS011;54051;53.464;49.532;2022-12-05T16:39:50;20.48;;;8.07;;
67130;SDS011;54051;53.464;49.532;2022-12-05T16:42:26;21.67;;;8.23;;
67130;SDS011;54051;53.464;49.532;2022-12-05T16:53:10;21.35;;;7.55;;
67130;SDS011;54051;53.464;49.532;2022-12-05T16:55:43;22.48;;;7.97;;
67130;SDS011;54051;53.464;49.532;2022-12-05T16:58:10;21.80;;;7.80;;
67130;SDS011;54051;53.464;49.532;2022-12-05T17:00:40;18.38;;;7.53;;
67130;SDS011;54051;53.464;49.532;2022-12-05T17:03:08;22.35;;;7.88;;
67130;SDS011;54051;53.464;49.532;2022-12-05T17:05:39;23.52;;;8.27;;
67130;SDS011;54051;53.464;49.532;2022-12-05T17:08:06;20.75;;;7.32;;
67130;SDS011;54051;53.464;49.532;2022-12-05T17:10:32;23.17;;;9.52;;
67130;SDS011;54051;53.464;49.532;2022-12-05T17:12:58;19.45;;;7.70;;
67130;SDS011;54051;53.464;49.532;2022-12-05T17:15:25;20.35;;;7.47;;
67130;SDS011;54051;53.464;49.532;2022-12-05T17:17:51;21.83;;;7.85;;
67130;SDS011;54051;53.464;49.532;2022-12-05T17:20:18;22.70;;;8.00;;
67130;SDS011;54051;53.464;49.532;2022-12-05T17:22:44;22.33;;;7.68;;
67130;SDS011;54051;53.464;49.532;2022-12-05T17:25:22;24.15;;;8.50;;
67130;SDS011;54051;53.464;49.532;2022-12-05T17:27:55;22.95;;;7.95;;
67130;SDS011;54051;53.464;49.532;2022-12-05T17:30:23;22.00;;;7.80;;
67130;SDS011;54051;53.464;49.532;2022-12-05T17:32:49;20.70;;;8.50;;
67130;SDS011;54051;53.464;49.532;2022-12-05T17:35:16;21.20;;;8.82;;
67130;SDS011;54051;53.464;49.532;2022-12-05T17:37:44;18.58;;;7.72;;
67130;SDS011;54051;53.464;49.532;2022-12-05T17:40:10;19.23;;;7.97;;
67130;SDS011;54051;53.464;49.532;2022-12-05T17:42:38;19.70;;;8.25;;
67130;SDS011;54051;53.464;49.532;2022-12-05T17:45:08;20.98;;;7.63;;
67130;SDS011;54051;53.464;49.532;2022-12-05T17:47:37;22.50;;;8.82;;
67130;SDS011;54051;53.464;49.532;2022-12-05T17:50:04;20.50;;;8.15;;
67130;SDS011;54051;53.464;49.532;2022-12-05T17:52:31;24.88;;;8.35;;
67130;SDS011;54051;53.464;49.532;2022-12-05T17:54:58;19.23;;;7.65;;
67130;SDS011;54051;53.464;49.532;2022-12-05T17:57:24;18.75;;;7.75;;
67130;SDS011;54051;53.464;49.532;2022-12-05T17:59:50;19.77;;;8.30;;
67130;SDS011;54051;53.464;49.532;2022-12-05T18:02:16;20.55;;;7.40;;
67130;SDS011;54051;53.464;49.532;2022-12-05T18:04:44;22.52;;;7.85;;
67130;SDS011;54051;53.464;49.532;2022-12-05T18:07:10;22.83;;;7.97;;
67130;SDS011;54051;53.464;49.532;2022-12-05T18:09:37;21.08;;;8.20;;
67130;SDS011;54051;53.464;49.532;2022-12-05T18:12:03;20.83;;;8.02;;
67130;SDS011;54051;53.464;49.532;2022-12-05T18:14:29;19.52;;;8.05;;
67130;SDS011;54051;53.464;49.532;2022-12-05T18:16:56;21.57;;;8.37;;
67130;SDS011;54051;53.464;49.532;2022-12-05T18:19:22;22.45;;;7.97;;
67130;SDS011;54051;53.464;49.532;2022-12-05T18:21:48;20.73;;;8.25;;
67130;SDS011;54051;53.464;49.532;2022-12-05T18:24:14;21.77;;;8.18;;
67130;SDS011;54051;53.464;49.532;2022-12-05T18:26:40;20.55;;;8.32;;
67130;SDS011;54051;53.464;49.532;2022-12-05T18:29:05;20.08;;;7.50;;
67130;SDS011;54051;53.464;49.532;2022-12-05T18:31:31;18.38;;;7.57;;
67130;SDS011;54051;53.464;49.532;2022-12-05T18:33:57;22.90;;;8.02;;
67130;SDS011;54051;53.464;49.532;2022-12-05T18:36:23;19.63;;;7.70;;